Time;durP1;ratioP1;P1;durP2;ratioP2;P2;SDS_P1;SDS_P2;PMS_P1;PMS_P2;Temp;Humidity;BMP_temperature;BMP_pressure;BME280_temperature;BME280_humidity;BME280_pressure;Samples;Min_cycle;Max_cycle;Signal;HPM_P1;HPM_P2
2022/09/10 00:00:05;;;;;;;28.42;4.95;;;;;;;14.22;100.00;100728.94;5042200;28;20021;-84
2022/09/10 00:02:31;;;;;;;39.47;5.50;;;;;;;14.17;100.00;100726.03;5048585;28;20030;-85
2022/09/10 00:04:58;;;;;;;33.38;6.10;;;;;;;14.13;100.00;100719.34;5028541;28;20036;-87
2022/09/10 00:07:24;;;;;;;30.27;6.22;;;;;;;14.15;100.00;100716.44;5036790;28;20041;-86
2022/09/10 00:09:49;;;;;;;18.73;4.18;;;;;;;14.13;100.00;100708.53;5011881;28;20269;-82
2022/09/10 00:12:14;;;;;;;18.85;4.75;;;;;;;14.10;100.00;100708.13;5044179;28;20033;-84
2022/09/10 00:14:40;;;;;;;26.05;5.07;;;;;;;14.07;100.00;100703.97;5042883;28;20022;-85
2022/09/10 00:17:05;;;;;;;26.30;4.80;;;;;;;14.07;100.00;100693.13;5036896;28;20389;-81
2022/09/10 00:19:31;;;;;;;26.98;5.18;;;;;;;14.05;100.00;100689.78;5041809;28;20139;-87
2022/09/10 00:21:56;;;;;;;21.40;5.35;;;;;;;14.08;100.00;100689.38;5042385;28;20036;-82
2022/09/10 00:24:22;;;;;;;21.08;5.47;;;;;;;14.07;100.00;100687.72;5036715;28;20033;-82
2022/09/10 00:26:48;;;;;;;21.50;5.00;;;;;;;14.12;100.00;100677.09;5035538;28;20500;-81
2022/09/10 00:29:16;;;;;;;21.23;5.57;;;;;;;14.09;100.00;100684.81;5037258;28;20029;-83
2022/09/10 00:31:42;;;;;;;24.38;6.20;;;;;;;14.11;100.00;100688.94;5040954;28;20094;-85
2022/09/10 00:34:08;;;;;;;18.88;6.10;;;;;;;14.11;100.00;100699.78;5050542;28;20029;-84
2022/09/10 00:36:38;;;;;;;21.13;6.13;;;;;;;14.14;100.00;100699.38;5038461;28;20049;-83
2022/09/10 00:39:06;;;;;;;20.67;6.40;;;;;;;14.15;100.00;100692.91;5044498;28;20052;-83
2022/09/10 00:41:33;;;;;;;26.27;6.10;;;;;;;14.18;100.00;100697.91;5027687;28;20037;-83
2022/09/10 00:44:02;;;;;;;26.48;6.32;;;;;;;14.21;100.00;100697.47;5036824;28;20053;-86
2022/09/10 00:46:32;;;;;;;37.50;8.20;;;;;;;14.23;100.00;100706.25;5032414;28;20034;-84
2022/09/10 00:49:01;;;;;;;49.08;8.98;;;;;;;14.27;100.00;100704.78;4990969;28;20115;-84
2022/09/10 00:51:29;;;;;;;35.35;9.10;;;;;;;14.30;100.00;100697.25;5006431;28;20030;-83
2022/09/10 00:53:55;;;;;;;35.03;9.93;;;;;;;14.30;100.00;100692.72;5009230;28;20033;-82
2022/09/10 00:56:21;;;;;;;34.28;10.55;;;;;;;14.31;100.00;100678.13;5002833;28;20022;-84
2022/09/10 00:58:47;;;;;;;39.80;11.45;;;;;;;14.34;100.00;100668.75;5035093;28;20477;-83
2022/09/10 01:01:13;;;;;;;42.35;11.80;;;;;;;14.34;100.00;100671.44;5038062;28;20037;-85
2022/09/10 01:03:39;;;;;;;43.03;11.40;;;;;;;14.37;100.00;100684.56;5041109;28;20032;-85
2022/09/10 01:06:05;;;;;;;40.38;10.95;;;;;;;14.37;100.00;100676.44;5022990;28;20079;-86
2022/09/10 01:08:30;;;;;;;34.97;11.20;;;;;;;14.38;100.00;100676.25;5041930;28;20045;-85
2022/09/10 01:11:15;;;;;;;47.78;10.73;;;;;;;14.39;100.00;100679.78;5037256;28;20029;-86
2022/09/10 01:14:04;;;;;;;44.47;11.27;;;;;;;14.41;100.00;100688.53;5035744;28;20497;-83
2022/09/10 01:16:50;;;;;;;46.50;11.75;;;;;;;14.41;100.00;100673.09;5007629;28;20053;-85
2022/09/10 01:19:40;;;;;;;52.30;11.27;;;;;;;14.42;100.00;100668.53;4999808;28;20040;-83
2022/09/10 01:22:43;;;;;;;30.23;9.35;;;;;;;14.40;100.00;100662.47;5026023;28;20029;-83
2022/09/10 01:25:16;;;;;;;48.83;11.13;;;;;;;14.38;100.00;100670.81;5034683;28;20084;-85
2022/09/10 01:27:44;;;;;;;57.92;10.90;;;;;;;14.37;100.00;100655.59;5028363;28;20112;-84
2022/09/10 01:30:23;;;;;;;65.03;10.27;;;;;;;14.37;100.00;100660.19;5015991;28;20029;-85
2022/09/10 01:33:09;;;;;;;26.75;9.48;;;;;;;14.38;100.00;100664.59;5015869;28;20025;-83
2022/09/10 01:35:55;;;;;;;37.15;10.00;;;;;;;14.38;100.00;100670.81;5034608;28;20511;-83
2022/09/10 01:38:25;;;;;;;31.73;8.70;;;;;;;14.40;100.00;100670.59;5007468;28;20025;-86
2022/09/10 01:40:52;;;;;;;35.67;8.48;;;;;;;14.39;100.00;100664.34;5014429;28;20032;-86
2022/09/10 01:43:18;;;;;;;35.10;9.45;;;;;;;14.39;100.00;100660.81;5012685;28;20025;-82
2022/09/10 01:46:21;;;;;;;37.88;8.82;;;;;;;14.42;100.00;100660.41;5029441;28;20036;-82
2022/09/10 01:48:58;;;;;;;45.92;9.75;;;;;;;14.44;100.00;100667.25;5029341;28;20068;-82
2022/09/10 01:51:51;;;;;;;36.20;9.38;;;;;;;14.49;100.00;100663.94;5015885;28;20052;-82
2022/09/10 01:54:25;;;;;;;37.60;8.85;;;;;;;14.50;100.00;100674.53;5033645;28;20663;-85
2022/09/10 01:57:27;;;;;;;36.17;8.55;;;;;;;14.51;100.00;100680.81;5039170;28;20056;-84
2022/09/10 02:00:10;;;;;;;46.35;10.32;;;;;;;14.53;100.00;100672.47;5033053;28;20514;-80
2022/09/10 02:02:40;;;;;;;33.15;7.90;;;;;;;14.51;100.00;100667.25;5032356;28;20478;-80
2022/09/10 02:05:07;;;;;;;40.03;8.65;;;;;;;14.57;100.00;100676.44;5016384;28;20091;-80
2022/09/10 02:07:34;;;;;;;35.65;7.70;;;;;;;14.58;100.00;100670.78;5041129;28;20033;-80
2022/09/10 02:10:01;;;;;;;25.92;7.55;;;;;;;14.57;100.00;100677.28;5032716;28;20030;-80
2022/09/10 02:12:27;;;;;;;50.47;8.57;;;;;;;14.59;100.00;100685.19;5026541;28;20033;-78
2022/09/10 02:14:55;;;;;;;43.17;8.25;;;;;;;14.59;100.00;100674.38;5032367;28;20521;-79
2022/09/10 02:17:22;;;;;;;29.17;8.30;;;;;;;14.60;100.00;100678.72;5032254;28;20017;-78
2022/09/10 02:19:52;;;;;;;33.42;9.07;;;;;;;14.67;100.00;100668.72;5017360;28;20112;-79
2022/09/10 02:22:19;;;;;;;44.78;10.68;;;;;;;14.76;100.00;100672.00;5015429;28;20029;-79
2022/09/10 02:24:44;;;;;;;32.67;8.80;;;;;;;14.76;100.00;100656.56;5033028;28;20389;-78
2022/09/10 02:27:10;;;;;;;41.72;10.15;;;;;;;14.77;100.00;100649.28;5032166;28;20053;-78
2022/09/10 02:29:37;;;;;;;36.83;9.50;;;;;;;14.70;100.00;100655.56;5031011;28;20044;-78
2022/09/10 02:32:03;;;;;;;27.92;9.73;;;;;;;14.67;100.00;100655.16;5031325;28;20029;-78
2022/09/10 02:34:29;;;;;;;46.45;10.30;;;;;;;14.66;100.00;100657.00;5012364;28;20446;-77
2022/09/10 02:36:56;;;;;;;31.88;8.60;;;;;;;14.67;100.00;100645.16;5027529;28;20585;-77
2022/09/10 02:39:22;;;;;;;40.67;9.80;;;;;;;14.67;100.00;100647.88;5032019;28;20056;-78
2022/09/10 02:41:47;;;;;;;42.25;9.63;;;;;;;14.70;100.00;100649.31;5030557;28;20025;-78
2022/09/10 02:44:12;;;;;;;37.05;9.27;;;;;;;14.68;100.00;100652.22;5032208;28;20036;-77
2022/09/10 02:46:38;;;;;;;33.83;9.02;;;;;;;14.70;100.00;100660.16;5013119;28;20036;-78
2022/09/10 02:49:04;;;;;;;36.00;8.88;;;;;;;14.69;100.00;100658.47;5030967;28;20116;-77
2022/09/10 02:51:29;;;;;;;37.58;8.68;;;;;;;14.74;100.00;100660.53;5031935;28;20033;-78
2022/09/10 02:53:55;;;;;;;28.05;9.60;;;;;;;14.75;100.00;100652.22;5027738;28;20025;-79
2022/09/10 02:56:21;;;;;;;39.03;9.70;;;;;;;14.77;100.00;100654.69;5013693;28;20116;-79
2022/09/10 02:58:47;;;;;;;33.08;9.13;;;;;;;14.76;100.00;100659.28;5030509;28;20084;-79
2022/09/10 03:01:15;;;;;;;47.50;9.93;;;;;;;14.75;100.00;100651.38;5031613;28;20057;-79
2022/09/10 03:03:41;;;;;;;41.85;9.52;;;;;;;14.74;100.00;100663.25;5033005;28;20033;-78
2022/09/10 03:06:06;;;;;;;40.38;10.00;;;;;;;14.69;100.00;100663.88;5031145;28;20025;-79
2022/09/10 03:08:32;;;;;;;52.03;10.48;;;;;;;14.67;100.00;100655.16;5030626;28;20425;-79
2022/09/10 03:10:58;;;;;;;42.50;10.88;;;;;;;14.67;100.00;100661.41;5031513;28;20033;-79
2022/09/10 03:13:27;;;;;;;42.50;11.15;;;;;;;14.69;100.00;100659.31;5031944;28;20028;-79
2022/09/10 03:15:53;;;;;;;54.25;11.15;;;;;;;14.73;100.00;100661.59;5029014;28;20128;-79
2022/09/10 03:18:21;;;;;;;53.85;11.27;;;;;;;14.75;100.00;100651.38;5031248;28;20029;-79
2022/09/10 03:20:46;;;;;;;38.63;10.05;;;;;;;14.77;100.00;100657.41;5039489;28;20025;-79
2022/09/10 03:23:12;;;;;;;37.10;10.10;;;;;;;14.78;100.00;100664.50;5023337;28;20033;-80
2022/09/10 03:25:37;;;;;;;26.13;9.50;;;;;;;14.77;100.00;100652.84;5032893;28;20044;-79
2022/09/10 03:28:03;;;;;;;29.00;10.07;;;;;;;14.74;100.00;100655.13;5033056;28;20033;-79
2022/09/10 03:30:28;;;;;;;41.10;10.40;;;;;;;14.68;100.00;100646.81;5029654;28;20030;-79
2022/09/10 03:32:53;;;;;;;38.13;10.98;;;;;;;14.65;100.00;100643.72;5031802;28;20018;-80
2022/09/10 03:35:18;;;;;;;42.67;11.57;;;;;;;14.59;100.00;100647.28;5022438;28;20038;-79
2022/09/10 03:37:44;;;;;;;40.78;12.13;;;;;;;14.57;100.00;100646.66;5022609;28;20029;-79
2022/09/10 03:40:10;;;;;;;46.40;12.70;;;;;;;14.57;100.00;100649.34;4999681;28;20507;-79
2022/09/10 03:42:35;;;;;;;56.58;14.82;;;;;;;14.56;100.00;100653.94;5028903;28;20397;-79
2022/09/10 03:45:00;;;;;;;56.70;15.70;;;;;;;14.59;100.00;100658.94;5019478;28;20029;-79
2022/09/10 03:47:26;;;;;;;59.88;16.67;;;;;;;14.60;100.00;100655.16;5020893;28;20021;-79
2022/09/10 03:49:51;;;;;;;44.97;17.10;;;;;;;14.61;100.00;100656.84;5030590;28;20053;-77
2022/09/10 03:52:16;;;;;;;41.25;15.77;;;;;;;14.63;100.00;100651.22;5030366;28;20036;-77
2022/09/10 03:54:42;;;;;;;56.20;17.58;;;;;;;14.63;100.00;100654.75;5030131;28;20029;-78
2022/09/10 03:57:07;;;;;;;60.17;18.70;;;;;;;14.64;100.00;100656.41;5030295;28;20342;-78
2022/09/10 03:59:34;;;;;;;68.45;21.38;;;;;;;14.66;100.00;100657.00;5040525;28;20013;-77
2022/09/10 04:01:59;;;;;;;54.97;18.65;;;;;;;14.65;100.00;100654.53;5052651;28;20218;-78
2022/09/10 04:04:25;;;;;;;62.38;19.63;;;;;;;14.65;100.00;100657.25;5054108;28;20053;-77
2022/09/10 04:06:52;;;;;;;66.68;21.75;;;;;;;14.60;100.00;100649.75;5049128;28;20036;-79
2022/09/10 04:09:17;;;;;;;65.95;19.48;;;;;;;14.62;100.00;100658.50;5035509;28;20401;-78
2022/09/10 04:11:43;;;;;;;71.00;21.95;;;;;;;14.63;100.00;100659.34;5033322;28;20032;-78
2022/09/10 04:14:08;;;;;;;79.50;22.30;;;;;;;14.62;100.00;100661.22;5054700;28;20013;-78
2022/09/10 04:16:34;;;;;;;67.78;21.00;;;;;;;14.63;100.00;100665.56;5053929;28;20036;-78
2022/09/10 04:18:59;;;;;;;62.08;21.30;;;;;;;14.66;100.00;100659.72;5029304;28;20044;-77
2022/09/10 04:21:25;;;;;;;85.13;22.67;;;;;;;14.68;100.00;100663.06;5028153;28;20469;-76
2022/09/10 04:23:59;;;;;;;61.63;21.00;;;;;;;14.73;100.00;100667.84;5031134;28;20026;-76
2022/09/10 04:26:25;;;;;;;62.40;19.25;;;;;;;14.77;100.00;100668.25;5015380;28;20038;-77
2022/09/10 04:28:50;;;;;;;60.78;19.55;;;;;;;14.78;100.00;100672.63;5026428;28;20014;-76
2022/09/10 04:31:15;;;;;;;69.38;21.30;;;;;;;14.77;100.00;100670.94;5038582;28;20068;-78
2022/09/10 04:33:41;;;;;;;75.38;21.90;;;;;;;14.78;100.00;100672.63;5035603;28;20206;-76
2022/09/10 04:36:06;;;;;;;72.18;19.98;;;;;;;14.78;100.00;100667.22;5000557;28;20040;-79
2022/09/10 04:38:32;;;;;;;63.33;19.73;;;;;;;14.74;100.00;100669.50;5044159;28;20097;-78
2022/09/10 04:41:01;;;;;;;65.55;19.83;;;;;;;14.69;100.00;100675.56;5017195;28;20030;-78
2022/09/10 04:43:26;;;;;;;59.50;19.27;;;;;;;14.64;100.00;100679.94;5036185;28;20059;-78
2022/09/10 04:45:54;;;;;;;56.72;19.58;;;;;;;14.60;100.00;100687.66;5040191;28;20014;-78
2022/09/10 04:48:22;;;;;;;55.78;18.88;;;;;;;14.55;100.00;100681.22;5040709;28;20484;-79
2022/09/10 04:50:48;;;;;;;60.78;17.85;;;;;;;14.50;100.00;100693.47;5045833;28;20053;-79
2022/09/10 04:53:14;;;;;;;55.60;18.35;;;;;;;14.46;100.00;100694.13;5039546;28;20082;-79
2022/09/10 04:55:41;;;;;;;51.10;18.38;;;;;;;14.43;100.00;100692.69;5042052;28;20060;-79
2022/09/10 04:58:07;;;;;;;56.97;19.08;;;;;;;14.43;100.00;100691.88;5026742;28;20017;-78
2022/09/10 05:00:32;;;;;;;58.45;18.38;;;;;;;14.40;100.00;100703.09;5042315;28;20029;-77
2022/09/10 05:02:58;;;;;;;55.38;17.30;;;;;;;14.38;100.00;100702.50;5044530;28;20025;-78
2022/09/10 05:05:23;;;;;;;56.08;18.55;;;;;;;14.34;100.00;100707.47;5045242;28;20021;-78
2022/09/10 05:07:49;;;;;;;52.55;17.58;;;;;;;14.30;100.00;100708.09;5029658;28;20076;-78
2022/09/10 05:10:14;;;;;;;50.67;17.20;;;;;;;14.25;100.00;100701.44;5039076;28;20018;-77
2022/09/10 05:12:40;;;;;;;49.88;16.45;;;;;;;14.27;100.00;100709.38;5038857;28;20048;-77
2022/09/10 05:15:06;;;;;;;72.18;18.23;;;;;;;14.25;100.00;100706.88;5019142;28;20397;-76
2022/09/10 05:17:32;;;;;;;48.03;16.15;;;;;;;14.26;100.00;100707.69;5040718;28;20607;-76
2022/09/10 05:19:57;;;;;;;48.58;16.73;;;;;;;14.28;100.00;100705.63;5037622;28;20064;-77
2022/09/10 05:22:23;;;;;;;58.83;16.48;;;;;;;14.28;100.00;100717.28;5039872;28;20264;-78
2022/09/10 05:24:49;;;;;;;61.22;16.67;;;;;;;14.35;100.00;100722.69;5025391;28;20057;-78
2022/09/10 05:27:15;;;;;;;54.08;17.70;;;;;;;14.40;100.00;100716.63;5053544;28;20044;-77
2022/09/10 05:29:40;;;;;;;63.70;18.25;;;;;;;14.43;100.00;100724.34;5055447;28;20080;-76
2022/09/10 05:32:08;;;;;;;55.75;17.15;;;;;;;14.47;100.00;100720.16;5053323;28;20029;-77
2022/09/10 05:34:33;;;;;;;;;;;;;;;14.49;100.00;100723.50;5053108;28;20022;-76
2022/09/10 05:36:58;;;;;;;57.60;17.88;;;;;;;14.52;100.00;100723.06;5036265;28;19917;-76
2022/09/10 05:39:24;;;;;;;66.50;17.55;;;;;;;14.55;100.00;100728.09;5039179;28;20060;-76
2022/09/10 05:41:49;;;;;;;57.28;18.83;;;;;;;14.58;100.00;100722.25;5057332;28;20097;-77
2022/09/10 05:44:16;;;;;;;57.13;19.13;;;;;;;14.63;100.00;100718.91;5057539;28;20030;-77
2022/09/10 05:46:41;;;;;;;59.95;19.38;;;;;;;14.74;100.00;100720.97;5040614;28;20097;-76
2022/09/10 05:49:07;;;;;;;872.33;58.58;;;;;;;15.20;100.00;100724.59;5036251;28;20034;-77
2022/09/10 05:51:33;;;;;;;103.05;21.08;;;;;;;15.77;100.00;100725.53;5042361;28;20045;-77
2022/09/10 05:53:59;;;;;;;42.72;16.20;;;;;;;16.05;100.00;100732.44;5035978;28;20030;-77
2022/09/10 05:56:25;;;;;;;40.92;12.77;;;;;;;15.93;100.00;100737.72;5046628;28;20037;-77
2022/09/10 05:58:50;;;;;;;37.03;11.27;;;;;;;15.80;100.00;100738.69;5018686;28;20038;-76
2022/09/10 06:01:15;;;;;;;33.67;11.38;;;;;;;15.72;100.00;100752.53;5018174;28;20032;-76
2022/09/10 06:03:41;;;;;;;28.15;7.38;;;;;;;15.70;100.00;100750.00;5021140;28;20099;-77
2022/09/10 06:06:07;;;;;;;15.68;3.50;;;;;;;15.71;100.00;100748.13;5028512;28;20061;-75
2022/09/10 06:08:34;;;;;;;16.45;4.05;;;;;;;15.75;100.00;100746.66;5037818;28;20041;-76
2022/09/10 06:11:01;;;;;;;14.45;2.60;;;;;;;15.80;100.00;100741.41;5050146;28;20081;-75
2022/09/10 06:13:27;;;;;;;10.40;2.30;;;;;;;15.84;100.00;100742.59;5038686;28;20036;-75
2022/09/10 06:15:52;;;;;;;14.25;2.40;;;;;;;15.88;100.00;100741.13;5034072;28;20021;-75
2022/09/10 06:18:18;;;;;;;19.05;2.65;;;;;;;15.93;100.00;100746.72;5034949;28;20438;-74
2022/09/10 06:20:43;;;;;;;18.30;3.00;;;;;;;15.96;100.00;100756.31;5034636;28;20029;-74
2022/09/10 06:23:09;;;;;;;21.77;3.45;;;;;;;16.01;100.00;100753.78;5037173;28;20017;-74
2022/09/10 06:25:34;;;;;;;11.90;2.60;;;;;;;16.14;100.00;100758.25;5033981;28;20035;-73
2022/09/10 06:28:00;;;;;;;20.75;3.15;;;;;;;16.24;100.00;100761.31;5037033;28;20071;-74
2022/09/10 06:30:26;;;;;;;21.00;3.00;;;;;;;16.26;100.00;100766.53;5036110;28;20036;-74
2022/09/10 06:32:51;;;;;;;11.57;2.20;;;;;;;16.39;100.00;100767.25;5036251;28;20037;-74
2022/09/10 06:35:17;;;;;;;11.50;2.13;;;;;;;16.57;100.00;100768.34;5034832;28;20035;-73
2022/09/10 06:37:42;;;;;;;10.75;2.58;;;;;;;16.68;100.00;100776.59;5033077;28;20087;-75
2022/09/10 06:40:08;;;;;;;18.88;3.25;;;;;;;16.68;100.00;100776.59;5033025;28;20359;-75
2022/09/10 06:42:33;;;;;;;12.82;2.53;;;;;;;16.89;100.00;100780.81;5031994;28;20544;-74
2022/09/10 06:44:59;;;;;;;10.57;2.50;;;;;;;17.08;100.00;100788.97;5032496;28;20040;-74
2022/09/10 06:47:25;;;;;;;16.52;2.38;;;;;;;17.31;100.00;100796.44;5030619;28;20032;-74
2022/09/10 06:49:51;;;;;;;6.38;2.13;;;;;;;17.31;100.00;100791.00;5030459;28;20489;-74
2022/09/10 06:52:16;;;;;;;10.00;2.20;;;;;;;17.13;100.00;100800.00;5013656;28;20068;-74
2022/09/10 06:54:42;;;;;;;14.85;2.22;;;;;;;17.02;100.00;100798.03;5013374;28;20030;-74
2022/09/10 06:57:07;;;;;;;7.72;1.88;;;;;;;16.93;100.00;100811.09;5013463;28;20069;-75
2022/09/10 06:59:33;;;;;;;5.68;2.00;;;;;;;17.02;100.00;100808.91;5013175;28;20117;-74
2022/09/10 07:01:59;;;;;;;13.60;2.00;;;;;;;17.68;100.00;100808.13;5013346;28;20018;-75
2022/09/10 07:04:24;;;;;;;11.63;1.95;;;;;;;18.35;100.00;100807.16;5013151;28;20092;-74
2022/09/10 07:06:50;;;;;;;9.70;1.80;;;;;;;18.84;100.00;100811.38;5012695;28;20105;-75
2022/09/10 07:09:15;;;;;;;26.42;2.40;;;;;;;18.81;100.00;100817.31;4994328;28;20065;-74
2022/09/10 07:11:41;;;;;;;14.32;1.70;;;;;;;18.92;100.00;100815.66;4994608;28;20319;-75
2022/09/10 07:14:09;;;;;;;11.00;1.48;;;;;;;19.63;100.00;100816.34;5011901;28;20120;-75
2022/09/10 07:16:35;;;;;;;6.75;1.60;;;;;;;20.13;100.00;100817.59;5010571;28;20026;-75
2022/09/10 07:19:00;;;;;;;14.43;1.85;;;;;;;20.85;96.23;100821.50;5011683;28;20034;-75
2022/09/10 07:21:27;;;;;;;13.40;2.35;;;;;;;21.62;91.06;100828.91;5011829;28;20030;-74
2022/09/10 07:23:57;;;;;;;13.13;2.83;;;;;;;22.61;86.41;100837.81;5012869;28;20030;-75
2022/09/10 07:26:22;;;;;;;14.60;2.22;;;;;;;23.52;80.62;100837.59;5011686;28;20281;-75
2022/09/10 07:28:48;;;;;;;15.23;2.83;;;;;;;24.32;76.92;100843.56;5011479;28;20022;-75
2022/09/10 07:31:16;;;;;;;17.70;3.53;;;;;;;25.08;68.96;100838.34;5011844;28;20030;-77
2022/09/10 07:33:42;;;;;;;13.75;4.38;;;;;;;24.27;68.32;100856.50;5011612;28;20029;-75
2022/09/10 07:36:09;;;;;;;17.35;5.03;;;;;;;24.12;69.51;100862.81;4993896;28;20034;-76
2022/09/10 07:38:35;;;;;;;18.65;6.15;;;;;;;24.16;69.57;100866.66;5011366;28;20029;-75
2022/09/10 07:41:01;;;;;;;16.98;6.63;;;;;;;24.14;69.50;100868.84;5011421;28;20076;-75
2022/09/10 07:43:26;;;;;;;25.45;7.43;;;;;;;24.58;69.10;100879.41;5011354;28;20551;-75
2022/09/10 07:45:51;;;;;;;18.70;6.45;;;;;;;25.30;65.57;100873.81;5011025;28;20026;-77
2022/09/10 07:48:17;;;;;;;29.83;7.55;;;;;;;25.60;62.52;100870.16;5011545;28;20282;-75
2022/09/10 07:50:42;;;;;;;25.70;8.55;;;;;;;25.96;60.92;100870.84;5013619;28;20053;-76
2022/09/10 07:53:08;;;;;;;23.48;9.02;;;;;;;25.92;61.35;100866.19;5013192;28;20026;-75
2022/09/10 07:55:33;;;;;;;22.58;9.30;;;;;;;26.15;59.90;100878.47;5012196;28;20038;-76
2022/09/10 07:57:58;;;;;;;27.08;10.60;;;;;;;26.68;58.56;100876.69;5011083;28;20018;-77
2022/09/10 08:00:24;;;;;;;30.42;10.70;;;;;;;27.04;56.86;100881.06;5011201;28;20401;-76
2022/09/10 08:02:49;;;;;;;28.45;9.95;;;;;;;26.80;56.48;100883.78;5012290;28;20497;-76
2022/09/10 08:05:15;;;;;;;29.15;13.13;;;;;;;26.04;57.61;100886.78;5011513;28;20045;-74
2022/09/10 08:07:41;;;;;;;32.67;12.50;;;;;;;25.40;59.40;100887.56;5010964;28;20021;-74
2022/09/10 08:10:10;;;;;;;41.33;13.57;;;;;;;24.44;60.91;100889.28;5010987;28;20492;-74
2022/09/10 08:12:36;;;;;;;32.13;13.27;;;;;;;24.22;65.27;100882.06;5012025;28;20026;-74
2022/09/10 08:15:02;;;;;;;30.73;13.88;;;;;;;24.00;65.18;100892.47;4994713;28;20056;-74
2022/09/10 08:17:28;;;;;;;42.97;15.18;;;;;;;23.33;68.33;100908.63;5011477;28;20030;-75
2022/09/10 08:19:54;;;;;;;32.70;13.07;;;;;;;23.17;71.00;100909.59;5012265;28;20044;-75
2022/09/10 08:22:19;;;;;;;19.85;7.50;;;;;;;22.91;70.08;100912.16;5014684;28;20481;-75
2022/09/10 08:24:46;;;;;;;16.92;6.20;;;;;;;22.95;69.81;100917.94;5014813;28;20052;-74
2022/09/10 08:27:11;;;;;;;13.00;4.95;;;;;;;23.48;69.07;100927.09;5014873;28;20026;-75
2022/09/10 08:29:37;;;;;;;11.98;5.43;;;;;;;23.53;67.35;100931.81;5014559;28;20026;-75
2022/09/10 08:32:02;;;;;;;14.32;4.82;;;;;;;23.13;68.18;100941.44;5014697;28;20453;-76
2022/09/10 08:34:28;;;;;;;15.98;4.13;;;;;;;22.84;66.67;100940.91;5014481;28;20172;-76
2022/09/10 08:36:54;;;;;;;13.38;4.10;;;;;;;22.89;65.63;100941.78;5014331;28;20133;-76
2022/09/10 08:39:19;;;;;;;6.10;3.17;;;;;;;22.60;65.86;100949.47;5014665;28;20444;-74
2022/09/10 08:41:59;;;;;;;12.10;3.88;;;;;;;22.12;66.97;100957.44;4980326;28;20419;-75
2022/09/10 08:44:34;;;;;;;12.48;4.05;;;;;;;22.32;67.65;100958.78;5014326;28;20038;-76
2022/09/10 08:46:59;;;;;;;7.10;3.67;;;;;;;22.82;67.06;100960.38;5013606;28;20029;-76
2022/09/10 08:49:33;;;;;;;10.25;3.95;;;;;;;23.48;65.65;100970.25;5029642;28;20505;-78
2022/09/10 08:52:30;;;;;;;11.55;4.20;;;;;;;23.79;64.55;100971.28;5034287;28;20066;-75
2022/09/10 08:55:05;;;;;;;9.30;4.00;;;;;;;24.13;60.05;100970.88;5033917;28;20030;-75
2022/09/10 08:57:44;;;;;;;11.18;4.30;;;;;;;23.84;60.38;100974.88;5032960;28;20041;-76
2022/09/10 09:00:16;;;;;;;14.73;5.18;;;;;;;23.97;60.84;100973.56;5030886;28;20078;-76
2022/09/10 09:02:51;;;;;;;16.98;5.68;;;;;;;24.01;61.57;100991.19;5028457;28;20056;-75
2022/09/10 09:05:27;;;;;;;15.65;7.80;;;;;;;23.58;60.69;100989.53;5015634;28;20120;-75
2022/09/10 09:07:53;;;;;;;23.08;9.90;;;;;;;23.38;63.21;100982.81;5033413;28;20041;-75
2022/09/10 09:10:24;;;;;;;17.13;11.00;;;;;;;23.17;63.85;100991.97;5032233;28;20030;-75
2022/09/10 09:12:58;;;;;;;18.80;10.45;;;;;;;22.72;62.90;100990.44;5023175;28;20057;-76
2022/09/10 09:15:37;;;;;;;19.35;10.75;;;;;;;22.64;64.47;100996.41;5038257;28;20060;-76
2022/09/10 09:18:17;;;;;;;16.05;9.25;;;;;;;23.34;62.67;101003.66;5025253;28;20041;-76
2022/09/10 09:20:45;;;;;;;12.50;6.00;;;;;;;23.42;61.83;101007.84;5036399;28;20037;-76
2022/09/10 09:23:14;;;;;;;11.63;6.25;;;;;;;23.26;63.13;101006.91;5033764;28;20037;-76
2022/09/10 09:25:42;;;;;;;11.35;5.13;;;;;;;23.99;62.44;101006.28;5032804;28;20029;-76
2022/09/10 09:28:18;;;;;;;12.40;5.00;;;;;;;24.17;59.47;101011.31;5031798;28;20026;-76
2022/09/10 09:30:48;;;;;;;8.70;4.68;;;;;;;23.72;60.12;101020.97;5013053;28;20086;-75
2022/09/10 09:33:16;;;;;;;14.95;6.03;;;;;;;22.98;62.62;101022.56;5031353;28;20017;-76
2022/09/10 09:35:45;;;;;;;11.00;5.97;;;;;;;22.13;65.11;101016.66;5013821;28;20040;-76
2022/09/10 09:38:18;;;;;;;9.65;4.90;;;;;;;22.21;67.78;101025.56;5032920;28;20079;-76
2022/09/10 09:40:49;;;;;;;13.65;3.95;;;;;;;22.95;65.26;101022.25;5015588;28;20432;-74
2022/09/10 09:43:26;;;;;;;10.65;4.38;;;;;;;23.54;62.83;101026.84;4998980;28;20025;-76
2022/09/10 09:45:52;;;;;;;;;;;;;;;23.30;63.54;101024.50;4998620;28;20404;-76
2022/09/10 09:48:19;;;;;;;12.07;5.50;;;;;;;23.38;61.58;101026.78;5034320;28;19952;-75
2022/09/10 09:50:49;;;;;;;14.60;6.38;;;;;;;22.87;62.76;101031.75;5014403;28;20032;-75
2022/09/10 09:53:27;;;;;;;12.63;6.65;;;;;;;22.39;64.86;101030.72;5014602;28;20030;-75
2022/09/10 09:55:55;;;;;;;17.80;5.85;;;;;;;22.10;65.97;101041.81;5030594;28;20021;-76
2022/09/10 09:58:20;;;;;;;17.63;7.03;;;;;;;21.81;65.96;101049.38;5014919;28;20040;-77
2022/09/10 10:00:48;;;;;;;17.90;6.22;;;;;;;21.65;67.86;101051.06;5028500;28;20136;-76
2022/09/10 10:03:27;;;;;;;10.85;6.15;;;;;;;21.68;67.48;101041.50;4998110;28;20480;-75
2022/09/10 10:06:07;;;;;;;15.73;6.47;;;;;;;21.88;65.83;101051.91;5013494;28;20449;-76
2022/09/10 10:08:38;;;;;;;16.05;7.43;;;;;;;22.17;65.79;101046.28;5031762;28;20065;-76
2022/09/10 10:11:05;;;;;;;15.88;8.43;;;;;;;22.04;66.50;101051.06;5011916;28;20037;-76
2022/09/10 10:13:41;;;;;;;20.73;9.40;;;;;;;22.04;65.17;101056.56;5011627;28;20037;-75
2022/09/10 10:16:32;;;;;;;19.60;8.77;;;;;;;21.80;66.50;101058.69;5033286;28;20022;-76
2022/09/10 10:18:58;;;;;;;20.65;8.90;;;;;;;21.83;66.57;101063.66;5014195;28;20029;-77
2022/09/10 10:21:30;;;;;;;17.90;7.10;;;;;;;21.70;65.91;101053.88;5013203;28;20678;-76
2022/09/10 10:23:56;;;;;;;15.98;5.53;;;;;;;21.59;67.32;101054.81;5024463;28;20060;-76
2022/09/10 10:26:32;;;;;;;17.00;5.68;;;;;;;21.55;68.18;101061.84;5032111;28;20497;-75
2022/09/10 10:29:05;;;;;;;15.40;5.13;;;;;;;21.61;66.88;101063.59;5031196;28;20025;-76
2022/09/10 10:31:39;;;;;;;8.95;5.07;;;;;;;21.74;66.81;101067.06;5003485;28;20034;-76
2022/09/10 10:34:13;;;;;;;10.77;4.10;;;;;;;21.79;66.72;101078.09;4997181;28;20033;-76
2022/09/10 10:37:03;;;;;;;12.00;4.15;;;;;;;21.88;66.41;101068.34;5013442;28;20037;-75
2022/09/10 10:39:45;;;;;;;10.73;3.90;;;;;;;21.86;66.07;101074.13;5031931;28;20029;-77
2022/09/10 10:42:19;;;;;;;12.95;4.00;;;;;;;21.90;66.54;101085.38;5012335;28;20025;-75
2022/09/10 10:45:03;;;;;;;10.90;4.43;;;;;;;21.88;65.47;101080.19;5025631;28;20084;-78
2022/09/10 10:47:42;;;;;;;8.60;4.13;;;;;;;21.83;65.45;101092.97;5029356;28;20104;-75
2022/09/10 10:50:38;;;;;;;13.27;4.30;;;;;;;21.75;65.70;101085.16;5013822;28;20104;-77
2022/09/10 10:53:13;;;;;;;11.18;3.67;;;;;;;21.76;66.02;101095.06;5027690;28;20036;-76
2022/09/10 10:55:55;;;;;;;9.73;3.70;;;;;;;21.77;67.25;101089.31;5020639;28;20419;-76
2022/09/10 10:58:33;;;;;;;11.38;3.53;;;;;;;21.68;67.27;101096.28;5019021;28;20428;-76
2022/09/10 11:01:05;;;;;;;13.13;3.90;;;;;;;21.76;67.23;101103.28;5021074;28;20061;-76
2022/09/10 11:03:41;;;;;;;6.15;3.05;;;;;;;21.69;67.30;101111.63;5003009;28;20041;-76
2022/09/10 11:06:09;;;;;;;15.27;4.10;;;;;;;21.83;66.14;101103.94;4997758;28;20030;-76
2022/09/10 11:08:49;;;;;;;15.35;4.05;;;;;;;22.33;65.24;101108.53;4986712;28;20435;-75
2022/09/10 11:11:23;;;;;;;13.30;3.80;;;;;;;22.46;63.88;101105.41;5015763;28;20040;-77
2022/09/10 11:13:53;;;;;;;12.48;3.67;;;;;;;22.32;63.83;101104.09;5008572;28;20397;-76
2022/09/10 11:16:23;;;;;;;7.40;3.17;;;;;;;22.61;64.39;101112.16;5014233;28;20037;-77